createdAt,value
2019-01-23T00:01:47.642Z,5.67
2019-01-23T00:04:18.062Z,5.67
2019-01-23T00:06:48.506Z,5.57
2019-01-23T00:09:19.063Z,5.58
2019-01-23T00:11:49.482Z,5.72
2019-01-23T00:14:19.941Z,5.75
2019-01-23T00:16:50.360Z,5.68
2019-01-23T00:19:20.774Z,5.74
2019-01-23T00:21:51.236Z,5.72
2019-01-23T00:24:21.652Z,5.60
2019-01-23T00:26:52.100Z,5.67
2019-01-23T00:29:22.559Z,5.73
2019-01-23T00:31:53.015Z,5.74
2019-01-23T00:34:23.463Z,5.75
2019-01-23T00:36:53.978Z,5.78
2019-01-23T00:39:24.418Z,5.77
2019-01-23T00:41:54.934Z,5.82
2019-01-23T00:44:25.432Z,5.87
2019-01-23T00:46:55.955Z,5.90
2019-01-23T00:49:26.407Z,5.95
2019-01-23T00:51:56.915Z,5.84
2019-01-23T00:54:27.437Z,5.87
2019-01-23T00:56:57.859Z,5.90
2019-01-23T00:59:28.315Z,5.92
2019-01-23T01:01:58.734Z,5.77
2019-01-23T01:04:29.191Z,5.74
2019-01-23T01:06:59.641Z,5.78
2019-01-23T01:09:30.089Z,5.67
2019-01-23T01:12:00.505Z,5.67
2019-01-23T01:14:30.925Z,5.72
2019-01-23T01:17:01.341Z,5.76
2019-01-23T01:19:31.787Z,5.76
2019-01-23T01:22:02.196Z,5.76
2019-01-23T01:24:32.650Z,5.74
2019-01-23T01:27:03.456Z,5.80
2019-01-23T01:29:33.917Z,5.80
2019-01-23T01:32:04.432Z,5.70
2019-01-23T01:34:34.897Z,5.78
2019-01-23T01:37:05.450Z,5.79
2019-01-23T01:39:35.862Z,5.03
2019-01-23T01:42:06.435Z,5.83
2019-01-23T01:44:36.954Z,5.89
2019-01-23T01:47:07.381Z,5.94
2019-01-23T01:49:37.945Z,5.95
2019-01-23T01:52:08.363Z,5.82
2019-01-23T01:54:38.831Z,5.79
2019-01-23T01:57:09.279Z,5.75
2019-01-23T01:59:39.902Z,5.72
2019-01-23T02:02:10.457Z,5.64
2019-01-23T02:04:40.877Z,5.60
2019-01-23T02:07:11.384Z,5.67
2019-01-23T02:09:45.461Z,5.73
2019-01-23T02:12:13.947Z,5.74
2019-01-23T02:14:44.402Z,5.76
2019-01-23T02:17:14.808Z,5.79
2019-01-23T02:19:45.464Z,5.87
2019-01-23T02:22:15.914Z,5.82
2019-01-23T02:24:46.369Z,5.88
2019-01-23T02:27:16.787Z,5.94
2019-01-23T02:29:47.262Z,5.98
2019-01-23T02:32:17.723Z,6.06
2019-01-23T02:34:48.139Z,6.03
2019-01-23T02:37:18.605Z,5.99
2019-01-23T02:39:49.070Z,6.02
2019-01-23T02:42:19.492Z,5.94
2019-01-23T02:44:49.963Z,5.83
2019-01-23T02:47:20.411Z,5.88
2019-01-23T02:49:50.830Z,5.74
2019-01-23T02:52:21.383Z,5.85
2019-01-23T02:54:51.894Z,5.89
2019-01-23T02:57:22.355Z,5.97
2019-01-23T02:59:52.771Z,5.92
2019-01-23T03:02:23.335Z,5.83
2019-01-23T03:04:53.808Z,5.89
2019-01-23T03:07:24.294Z,5.83
2019-01-23T03:09:54.752Z,5.72
2019-01-23T03:12:25.163Z,5.70
2019-01-23T03:14:55.703Z,5.80
2019-01-23T03:17:26.112Z,5.72
2019-01-23T03:19:56.563Z,5.82
2019-01-23T03:22:26.986Z,5.73
2019-01-23T03:24:57.452Z,5.75
2019-01-23T03:27:27.865Z,5.89
2019-01-23T03:29:58.286Z,5.95
2019-01-23T03:32:29.265Z,5.88
2019-01-23T03:34:59.676Z,5.90
2019-01-23T03:37:30.086Z,5.97
2019-01-23T03:40:00.549Z,5.83
2019-01-23T03:42:30.958Z,5.81
2019-01-23T03:45:01.419Z,5.77
2019-01-23T03:47:31.827Z,5.70
2019-01-23T03:50:02.291Z,5.66
2019-01-23T03:52:32.704Z,5.59
2019-01-23T03:55:03.302Z,5.64
2019-01-23T03:57:33.792Z,5.77
2019-01-23T04:00:05.360Z,5.82
2019-01-23T04:02:35.953Z,5.61
2019-01-23T04:05:08.151Z,5.74
2019-01-23T04:07:38.715Z,5.83
2019-01-23T04:10:11.389Z,5.85
2019-01-23T04:12:41.848Z,5.81
2019-01-23T04:15:13.374Z,5.92
2019-01-23T04:17:43.943Z,5.91
2019-01-23T04:20:16.352Z,5.98
2019-01-23T04:22:46.895Z,6.01
2019-01-23T04:25:17.436Z,6.02
2019-01-23T04:27:47.979Z,5.95
2019-01-23T04:30:23.542Z,5.88
2019-01-23T04:32:54.220Z,5.61
2019-01-23T04:35:24.630Z,5.77
2019-01-23T04:37:55.029Z,5.90
2019-01-23T04:40:25.484Z,5.88
2019-01-23T04:42:55.994Z,5.72
2019-01-23T04:45:26.566Z,5.83
2019-01-23T04:47:57.057Z,5.94
2019-01-23T04:50:27.744Z,5.96
2019-01-23T04:53:06.155Z,5.82
2019-01-23T04:55:38.362Z,5.80
2019-01-23T04:58:08.908Z,5.72
2019-01-23T05:00:39.369Z,5.88
2019-01-23T05:03:09.801Z,5.18
2019-01-23T05:05:40.263Z,5.97
2019-01-23T05:08:10.688Z,5.94
2019-01-23T05:10:41.139Z,5.90
2019-01-23T05:13:11.726Z,5.92
2019-01-23T05:15:42.184Z,5.99
2019-01-23T05:18:12.598Z,6.03
2019-01-23T05:20:43.031Z,6.07
2019-01-23T05:23:13.479Z,6.12
2019-01-23T05:25:43.882Z,6.10
2019-01-23T05:28:14.286Z,6.16
2019-01-23T05:30:44.736Z,6.20
2019-01-23T05:33:15.136Z,6.24
2019-01-23T05:35:45.569Z,6.25
2019-01-23T05:38:16.034Z,6.27
2019-01-23T05:40:46.495Z,6.21
2019-01-23T05:43:16.954Z,6.14
2019-01-23T05:45:47.554Z,6.15
2019-01-23T05:48:18.014Z,6.10
2019-01-23T05:50:48.454Z,6.09
2019-01-23T05:53:19.663Z,6.14
2019-01-23T05:55:50.120Z,6.19
2019-01-23T05:58:20.543Z,6.15
2019-01-23T06:00:51.016Z,6.17
2019-01-23T06:03:21.433Z,6.20
2019-01-23T06:05:51.898Z,6.20
2019-01-23T06:08:22.332Z,6.25
2019-01-23T06:10:52.806Z,6.19
2019-01-23T06:13:23.228Z,6.19
2019-01-23T06:15:53.675Z,6.27
2019-01-23T06:18:24.240Z,6.21
2019-01-23T06:20:55.651Z,6.21
2019-01-23T06:23:26.086Z,6.33
2019-01-23T06:25:56.500Z,6.34
2019-01-23T06:28:26.949Z,6.10
2019-01-23T06:30:57.366Z,6.29
2019-01-23T06:33:27.816Z,6.30
2019-01-23T06:35:58.272Z,6.16
2019-01-23T06:38:28.742Z,6.26
2019-01-23T06:40:59.147Z,5.59
2019-01-23T06:43:29.623Z,6.30
2019-01-23T06:46:00.038Z,6.41
2019-01-23T06:48:30.467Z,6.47
2019-01-23T06:51:00.947Z,6.49
2019-01-23T06:53:31.378Z,6.57
2019-01-23T06:56:01.861Z,6.63
2019-01-23T06:58:32.282Z,6.65
2019-01-23T07:01:02.731Z,6.74
2019-01-23T07:03:33.199Z,6.81
2019-01-23T07:06:03.714Z,6.85
2019-01-23T07:08:34.184Z,6.91
2019-01-23T07:11:04.699Z,6.96
2019-01-23T07:13:35.126Z,7.00
2019-01-23T07:16:05.918Z,7.07
2019-01-23T07:18:36.347Z,6.99
2019-01-23T07:21:06.770Z,6.97
2019-01-23T07:23:37.526Z,6.92
2019-01-23T07:26:08.066Z,6.28
2019-01-23T07:28:38.495Z,7.02
2019-01-23T07:31:08.940Z,7.01
2019-01-23T07:33:39.428Z,7.00
2019-01-23T07:36:09.889Z,7.02
2019-01-23T07:38:40.343Z,7.15
2019-01-23T07:41:10.771Z,7.20
2019-01-23T07:43:41.235Z,7.28
2019-01-23T07:46:11.661Z,7.39
2019-01-23T07:48:42.428Z,7.45
2019-01-23T07:51:12.901Z,7.52
2019-01-23T07:53:43.469Z,7.44
2019-01-23T07:56:13.892Z,7.47
2019-01-23T07:58:44.364Z,7.53
2019-01-23T08:01:14.793Z,7.58
2019-01-23T08:03:45.224Z,7.60
2019-01-23T08:06:15.679Z,7.70
2019-01-23T08:08:46.138Z,7.72
2019-01-23T08:11:16.736Z,7.11
2019-01-23T08:13:47.274Z,7.88
2019-01-23T08:16:17.776Z,7.95
2019-01-23T08:18:48.229Z,8.06
2019-01-23T08:21:18.989Z,8.06
2019-01-23T08:23:49.402Z,7.95
2019-01-23T08:26:19.877Z,7.98
2019-01-23T08:28:50.309Z,8.04
2019-01-23T08:31:20.856Z,8.17
2019-01-23T08:33:51.386Z,8.25
2019-01-23T08:36:21.826Z,8.32
2019-01-23T08:38:52.237Z,8.40
2019-01-23T08:41:22.796Z,8.48
2019-01-23T08:43:53.215Z,8.48
2019-01-23T08:46:23.680Z,8.56
2019-01-23T08:48:54.098Z,8.57
2019-01-23T08:51:24.568Z,8.60
2019-01-23T08:53:55.001Z,8.65
2019-01-23T08:56:25.468Z,8.65
2019-01-23T08:58:55.895Z,8.70
2019-01-23T09:01:26.393Z,8.68
2019-01-23T09:03:56.925Z,8.73
2019-01-23T09:06:27.332Z,8.77
2019-01-23T09:08:57.791Z,8.73
2019-01-23T09:11:28.324Z,8.77
2019-01-23T09:13:58.743Z,8.86
2019-01-23T09:16:29.168Z,8.87
2019-01-23T09:18:59.582Z,8.82
2019-01-23T09:21:30.100Z,8.91
2019-01-23T09:24:00.574Z,8.88
2019-01-23T09:26:31.028Z,8.89
2019-01-23T09:29:01.458Z,8.89
2019-01-23T09:31:53.701Z,8.91
2019-01-23T09:34:46.710Z,8.96
2019-01-23T09:37:39.927Z,9.02
2019-01-23T09:40:17.046Z,9.02
2019-01-23T09:43:10.591Z,9.06
2019-01-23T09:46:19.562Z,9.09
2019-01-23T09:49:21.248Z,9.06
2019-01-23T09:52:34.350Z,9.06
2019-01-23T09:55:06.190Z,8.49
2019-01-23T09:57:39.520Z,8.94
2019-01-23T10:00:14.498Z,8.96
2019-01-23T10:02:44.918Z,9.03
2019-01-23T10:05:15.486Z,9.04
2019-01-23T10:07:46.084Z,9.07
2019-01-23T10:10:17.891Z,9.00
2019-01-23T10:12:48.552Z,8.97
2019-01-23T10:15:22.651Z,8.99
2019-01-23T10:17:53.067Z,8.99
2019-01-23T10:20:23.535Z,8.94
2019-01-23T10:22:54.010Z,9.08
2019-01-23T10:25:24.492Z,9.02
2019-01-23T10:27:55.312Z,9.03
2019-01-23T10:30:25.863Z,8.96
2019-01-23T10:32:56.357Z,9.01
2019-01-23T10:35:26.868Z,9.04
2019-01-23T10:37:57.285Z,8.97
2019-01-23T10:40:27.737Z,8.96
2019-01-23T10:42:58.262Z,8.98
2019-01-23T10:45:28.726Z,9.02
2019-01-23T10:47:59.191Z,9.09
2019-01-23T10:50:29.719Z,9.03
2019-01-23T10:53:00.181Z,9.14
2019-01-23T10:55:30.598Z,9.19
2019-01-23T10:58:01.331Z,9.18
2019-01-23T11:00:31.840Z,9.14
2019-01-23T11:03:02.319Z,9.12
2019-01-23T11:05:32.902Z,9.23
2019-01-23T11:08:03.443Z,9.09
2019-01-23T11:10:33.920Z,9.18
2019-01-23T11:13:04.446Z,9.14
2019-01-23T11:15:34.899Z,9.16
2019-01-23T11:18:05.955Z,9.20
2019-01-23T11:20:36.384Z,9.22
2019-01-23T11:23:07.114Z,9.26
2019-01-23T11:25:37.738Z,9.25
2019-01-23T11:28:08.206Z,9.28
2019-01-23T11:30:38.882Z,9.24
2019-01-23T11:33:10.742Z,9.19
2019-01-23T11:35:41.304Z,9.13
2019-01-23T11:38:11.985Z,9.15
2019-01-23T11:40:42.616Z,9.12
2019-01-23T11:43:13.167Z,9.04
2019-01-23T11:45:43.712Z,9.03
2019-01-23T11:48:14.223Z,8.84
2019-01-23T11:50:44.700Z,8.94
2019-01-23T11:53:15.285Z,8.96
2019-01-23T11:55:45.893Z,9.05
2019-01-23T11:58:16.448Z,9.05
2019-01-23T12:00:47.088Z,8.98
2019-01-23T12:03:21.067Z,9.02
2019-01-23T12:05:49.781Z,9.01
2019-01-23T12:08:21.238Z,8.93
2019-01-23T12:10:51.875Z,8.17
2019-01-23T12:13:22.343Z,8.96
2019-01-23T12:15:52.770Z,8.90
2019-01-23T12:18:23.223Z,8.85
2019-01-23T12:20:53.651Z,8.92
2019-01-23T12:23:24.304Z,8.93
2019-01-23T12:25:54.858Z,8.89
2019-01-23T12:28:25.302Z,8.94
2019-01-23T12:30:55.676Z,8.96
2019-01-23T12:33:26.359Z,8.99
2019-01-23T12:35:56.790Z,8.93
2019-01-23T12:38:27.358Z,8.92
2019-01-23T12:40:58.092Z,8.94
2019-01-23T12:43:28.727Z,8.96
2019-01-23T12:45:59.214Z,8.94
2019-01-23T12:48:29.687Z,8.98
2019-01-23T12:51:00.236Z,8.99
2019-01-23T12:53:30.703Z,9.00
2019-01-23T12:56:01.144Z,8.98
2019-01-23T12:58:31.726Z,9.02
2019-01-23T13:01:02.382Z,8.99
2019-01-23T13:03:32.825Z,9.00
2019-01-23T13:06:03.497Z,8.89
2019-01-23T13:08:33.963Z,8.94
2019-01-23T13:11:04.471Z,8.98
2019-01-23T13:13:34.882Z,9.03
2019-01-23T13:16:05.563Z,8.96
2019-01-23T13:18:36.056Z,9.01
2019-01-23T13:21:06.645Z,9.05
2019-01-23T13:23:37.081Z,8.94
2019-01-23T13:26:07.645Z,8.92
2019-01-23T13:28:38.074Z,9.02
2019-01-23T13:31:08.501Z,9.03
2019-01-23T13:33:39.080Z,9.03
2019-01-23T13:36:10.701Z,9.04
2019-01-23T13:38:41.134Z,8.94
2019-01-23T13:41:11.709Z,8.94
2019-01-23T13:43:42.169Z,8.93
2019-01-23T13:46:12.826Z,8.89
2019-01-23T13:48:43.603Z,9.01
2019-01-23T13:51:14.343Z,9.02
2019-01-23T13:53:45.051Z,9.03
2019-01-23T13:56:18.121Z,9.01
2019-01-23T13:58:49.257Z,9.04
2019-01-23T14:01:19.924Z,8.99
2019-01-23T14:03:52.025Z,9.02
2019-01-23T14:06:22.508Z,9.02
2019-01-23T14:08:53.158Z,8.97
2019-01-23T14:11:23.690Z,8.94
2019-01-23T14:13:54.273Z,8.96
2019-01-23T14:16:24.818Z,8.98
2019-01-23T14:18:55.356Z,8.99
2019-01-23T14:21:25.839Z,8.94
2019-01-23T14:23:56.335Z,8.87
2019-01-23T14:26:26.805Z,8.85
2019-01-23T14:28:57.306Z,8.76
2019-01-23T14:31:27.765Z,8.82
2019-01-23T14:33:58.245Z,8.87
2019-01-23T14:36:28.839Z,8.89
2019-01-23T14:38:59.290Z,8.89
2019-01-23T14:41:29.743Z,8.93
2019-01-23T14:44:00.202Z,8.94
2019-01-23T14:46:30.748Z,8.94
2019-01-23T14:49:01.338Z,8.24
2019-01-23T14:51:31.821Z,8.88
2019-01-23T14:54:02.238Z,8.84
2019-01-23T14:56:32.698Z,8.85
2019-01-23T14:59:03.114Z,8.89
2019-01-23T15:01:33.613Z,8.86
2019-01-23T15:04:04.085Z,8.80
2019-01-23T15:06:34.536Z,8.80
2019-01-23T15:09:07.614Z,8.81
2019-01-23T15:11:38.029Z,8.83
2019-01-23T15:14:08.600Z,8.85
2019-01-23T15:16:39.024Z,8.83
2019-01-23T15:19:09.519Z,8.84
2019-01-23T15:21:39.963Z,8.84
2019-01-23T15:24:10.371Z,8.86
2019-01-23T15:26:40.869Z,8.82
2019-01-23T15:29:11.346Z,8.77
2019-01-23T15:31:41.812Z,8.81
2019-01-23T15:34:12.506Z,8.82
2019-01-23T15:36:43.006Z,8.82
2019-01-23T15:39:13.448Z,8.82
2019-01-23T15:41:43.910Z,8.84
2019-01-23T15:44:14.328Z,8.84
2019-01-23T15:46:44.784Z,8.79
2019-01-23T15:49:15.215Z,8.81
2019-01-23T15:51:45.715Z,8.82
2019-01-23T15:54:16.138Z,8.75
2019-01-23T15:56:46.591Z,8.74
2019-01-23T15:59:17.015Z,8.76
2019-01-23T16:01:47.566Z,8.76
2019-01-23T16:04:18.018Z,8.76
2019-01-23T16:06:48.459Z,8.75
2019-01-23T16:09:19.043Z,8.71
2019-01-23T16:11:49.603Z,8.63
2019-01-23T16:14:20.030Z,8.63
2019-01-23T16:16:50.495Z,8.62
2019-01-23T16:19:20.918Z,8.59
2019-01-23T16:21:51.350Z,8.58
2019-01-23T16:24:21.822Z,8.54
2019-01-23T16:26:52.342Z,8.46
2019-01-23T16:29:22.808Z,8.46
2019-01-23T16:31:53.281Z,8.46
2019-01-23T16:34:23.701Z,8.48
2019-01-23T16:36:54.366Z,8.45
2019-01-23T16:39:24.774Z,8.45
2019-01-23T16:41:55.189Z,8.24
2019-01-23T16:44:25.645Z,7.83
2019-01-23T16:46:56.108Z,8.27
2019-01-23T16:49:26.536Z,8.19
2019-01-23T16:51:56.983Z,8.23
2019-01-23T16:54:27.416Z,8.25
2019-01-23T16:56:57.857Z,8.26
2019-01-23T16:59:28.263Z,8.26
2019-01-23T17:01:58.811Z,8.23
2019-01-23T17:04:29.233Z,8.07
2019-01-23T17:06:59.775Z,8.17
2019-01-23T17:09:30.239Z,8.17
2019-01-23T17:12:00.650Z,8.11
2019-01-23T17:14:31.055Z,8.09
2019-01-23T17:17:01.535Z,8.07
2019-01-23T17:19:31.947Z,7.97
2019-01-23T17:22:02.401Z,7.76
2019-01-23T17:24:32.858Z,7.89
2019-01-23T17:27:03.424Z,7.84
2019-01-23T17:29:33.850Z,7.93
2019-01-23T17:32:04.403Z,7.96
2019-01-23T17:34:34.820Z,7.99
2019-01-23T17:37:05.371Z,7.98
2019-01-23T17:39:35.786Z,7.99
2019-01-23T17:42:06.420Z,7.96
2019-01-23T17:44:36.864Z,7.97
2019-01-23T17:47:07.464Z,7.99
2019-01-23T17:49:37.924Z,7.99
2019-01-23T17:52:08.343Z,8.02
2019-01-23T17:54:38.817Z,8.02
2019-01-23T17:57:09.330Z,7.98
2019-01-23T17:59:39.754Z,8.04
2019-01-23T18:02:10.261Z,7.92
2019-01-23T18:04:40.704Z,7.95
2019-01-23T18:07:11.126Z,8.00
2019-01-23T18:09:41.543Z,7.99
2019-01-23T18:12:12.000Z,7.87
2019-01-23T18:14:48.879Z,7.93
2019-01-23T18:17:14.564Z,7.95
2019-01-23T18:19:45.020Z,7.97
2019-01-23T18:22:15.407Z,7.97
2019-01-23T18:24:45.859Z,7.91
2019-01-23T18:27:16.317Z,7.88
2019-01-23T18:29:47.004Z,7.87
2019-01-23T18:32:17.534Z,7.91
2019-01-23T18:35:17.741Z,7.91
2019-01-23T18:38:14.847Z,7.87
2019-01-23T18:41:16.268Z,7.90
2019-01-23T18:44:23.330Z,7.71
2019-01-23T18:47:09.554Z,7.79
2019-01-23T18:50:25.007Z,7.68
2019-01-23T18:52:55.431Z,7.66
2019-01-23T18:55:27.142Z,7.71
2019-01-23T18:57:57.609Z,7.75
2019-01-23T19:00:28.271Z,7.76
2019-01-23T19:02:58.687Z,7.69
2019-01-23T19:05:29.312Z,7.68
2019-01-23T19:08:00.029Z,7.73
2019-01-23T19:10:30.525Z,7.77
2019-01-23T19:13:01.037Z,7.72
2019-01-23T19:15:31.598Z,7.79
2019-01-23T19:18:02.148Z,7.81
2019-01-23T19:20:32.674Z,7.86
2019-01-23T19:23:03.226Z,7.89
2019-01-23T19:25:33.686Z,7.93
2019-01-23T19:28:04.357Z,7.97
2019-01-23T19:30:35.017Z,7.99
2019-01-23T19:33:05.943Z,7.93
2019-01-23T19:35:36.498Z,7.98
2019-01-23T19:38:07.128Z,7.35
2019-01-23T19:40:37.549Z,8.00
2019-01-23T19:43:07.995Z,8.00
2019-01-23T19:45:38.451Z,8.04
2019-01-23T19:48:09.119Z,8.04
2019-01-23T19:50:39.593Z,8.05
2019-01-23T19:53:10.065Z,8.07
2019-01-23T19:55:40.472Z,8.05
2019-01-23T19:58:10.922Z,8.03
2019-01-23T20:00:41.377Z,8.01
2019-01-23T20:03:11.834Z,8.00
2019-01-23T20:05:42.462Z,7.97
2019-01-23T20:08:13.019Z,8.01
2019-01-23T20:10:43.538Z,7.97
2019-01-23T20:13:14.002Z,7.96
2019-01-23T20:15:44.471Z,7.98
2019-01-23T20:18:14.892Z,7.99
2019-01-23T20:20:45.355Z,7.98
2019-01-23T20:23:15.835Z,7.95
2019-01-23T20:25:46.693Z,7.96
2019-01-23T20:28:17.122Z,8.00
2019-01-23T20:30:47.768Z,7.88
2019-01-23T20:33:18.203Z,7.83
2019-01-23T20:35:48.768Z,7.16
2019-01-23T20:38:19.232Z,7.86
2019-01-23T20:40:49.641Z,7.85
2019-01-23T20:43:20.063Z,7.84
2019-01-23T20:45:50.464Z,7.86
2019-01-23T20:48:21.012Z,7.84
2019-01-23T20:50:51.428Z,7.82
2019-01-23T20:53:21.885Z,7.78
2019-01-23T20:55:52.357Z,7.77
2019-01-23T20:58:22.843Z,7.64
2019-01-23T21:00:53.295Z,7.59
2019-01-23T21:03:23.769Z,7.54
2019-01-23T21:05:54.194Z,7.47
2019-01-23T21:08:24.607Z,7.47
2019-01-23T21:10:55.099Z,7.56
2019-01-23T21:13:25.698Z,7.58
2019-01-23T21:15:56.120Z,7.63
2019-01-23T21:18:26.686Z,7.67
2019-01-23T21:20:57.099Z,7.70
2019-01-23T21:23:27.551Z,7.75
2019-01-23T21:25:58.000Z,7.76
2019-01-23T21:28:28.426Z,7.80
2019-01-23T21:30:58.876Z,7.76
2019-01-23T21:33:29.284Z,7.72
2019-01-23T21:35:59.872Z,7.76
2019-01-23T21:38:30.343Z,7.73
2019-01-23T21:41:00.797Z,7.77
2019-01-23T21:43:31.216Z,7.81
2019-01-23T21:46:01.693Z,7.80
2019-01-23T21:48:32.123Z,7.83
2019-01-23T21:51:02.585Z,7.86
2019-01-23T21:53:33.107Z,7.88
2019-01-23T21:56:03.570Z,7.87
2019-01-23T21:58:33.987Z,7.86
2019-01-23T22:01:04.645Z,7.83
2019-01-23T22:03:35.318Z,7.85
2019-01-23T22:06:05.973Z,7.88
2019-01-23T22:08:36.492Z,7.90
2019-01-23T22:11:06.904Z,7.89
2019-01-23T22:13:37.323Z,7.85
2019-01-23T22:16:07.740Z,7.81
2019-01-23T22:18:38.186Z,7.78
2019-01-23T22:21:08.592Z,7.84
2019-01-23T22:23:39.052Z,7.84
2019-01-23T22:26:09.467Z,7.86
2019-01-23T22:28:39.895Z,7.89
2019-01-23T22:31:10.321Z,7.88
2019-01-23T22:33:40.770Z,7.89
2019-01-23T22:36:11.275Z,7.90
2019-01-23T22:38:41.724Z,7.89
2019-01-23T22:41:12.142Z,7.92
2019-01-23T22:43:42.602Z,7.86
2019-01-23T22:46:13.023Z,7.83
2019-01-23T22:48:43.481Z,7.80
2019-01-23T22:51:13.906Z,7.68
2019-01-23T22:53:44.363Z,7.68
2019-01-23T22:56:14.811Z,7.71
2019-01-23T22:58:45.274Z,7.67
2019-01-23T23:01:29.420Z,7.63
2019-01-23T23:04:03.532Z,7.66
2019-01-23T23:06:32.964Z,7.72
2019-01-23T23:09:04.831Z,7.71
2019-01-23T23:11:35.285Z,7.77
2019-01-23T23:14:06.415Z,7.77
2019-01-23T23:16:36.831Z,7.75
2019-01-23T23:19:07.298Z,7.69
2019-01-23T23:21:37.706Z,7.68
2019-01-23T23:24:08.154Z,7.75
2019-01-23T23:26:38.562Z,7.73
2019-01-23T23:29:09.022Z,7.70
2019-01-23T23:31:39.445Z,7.60
2019-01-23T23:34:10.288Z,7.64
2019-01-23T23:36:40.716Z,7.56
2019-01-23T23:39:11.234Z,7.57
2019-01-23T23:41:41.697Z,7.49
2019-01-23T23:44:12.156Z,7.48
2019-01-23T23:46:42.562Z,7.45
2019-01-23T23:49:13.025Z,7.27
2019-01-23T23:51:43.475Z,7.28
2019-01-23T23:54:14.075Z,7.28
2019-01-23T23:56:44.491Z,7.22
2019-01-23T23:59:15.046Z,6.99
